Whiskey Trio — 3ETD3 — position and weather

sailwx.info

Track history (hours):
 
Tides and Currents Weather Stations Pressure Air Temp Water Temp Dewpoint Dewpoint Depression Visibility Wind Speed Wind Dir Waves Ship Positions

Whiskey Trio

Last reported at 2017-Sep-17 09:26 UTC. Time now 2017-Sep-20 23:37 UTC.
Position N 35°55' W 005°16'.

Length 89 m; draft 3.3 m.

Type: Cargo ship. MMSI: 353502000.

Date/timePositionNaut miles runAvg speedWind from/ knotsBaromVisibWave heightAir tempDewpointWater temp
2017-Sep-17 09:26N 35°55' W 005°16'3 6.6
2017-Sep-17 09:01N 35°54' W 005°19'0 0.7
2017-Sep-17 08:30N 35°54' W 005°19'0 0.0
2017-Sep-17 08:01N 35°54' W 005°19'0 0.0
2017-Sep-17 07:31N 35°54' W 005°19'0 0.0
2017-Sep-17 07:01N 35°54' W 005°19'0 0.0
2017-Sep-17 06:31N 35°54' W 005°19'0 0.0
2017-Sep-17 06:01N 35°54' W 005°19'0 0.0
2017-Sep-17 05:31N 35°54' W 005°19'1 1.3
2017-Sep-17 05:01N 35°54' W 005°19'1 2.7
2017-Sep-17 04:31N 35°55' W 005°20'2 4.6
2017-Sep-17 04:01N 35°57' W 005°22'2 4.7
2017-Sep-17 03:30N 35°57' W 005°25'3 6.2
2017-Sep-17 03:00N 35°57' W 005°29'201 4.8
2017-Sep-15 09:29N 37°32' W 009°09'11 6.2
2017-Sep-15 07:42N 37°42' W 009°03'1 6.3
2017-Sep-15 07:30N 37°43' W 009°03'3 5.5
2017-Sep-15 07:00N 37°46' W 009°04'3 6.4
2017-Sep-15 06:31N 37°48' W 009°08'3 6.6
2017-Sep-15 06:01N 37°49' W 009°11'3 6.2
2017-Sep-15 05:31N 37°51' W 009°14'3 6.1
2017-Sep-15 05:01N 37°53' W 009°18'3 6.4
2017-Sep-15 04:31N 37°54' W 009°21'3 6.3
2017-Sep-15 04:01N 37°56' W 009°24'3 6.2
2017-Sep-15 03:31N 37°58' W 009°28'3 5.8
2017-Sep-15 03:01N 37°59' W 009°31'4 6.1
2017-Sep-15 02:25N 38°01' W 009°35'3 5.9
2017-Sep-15 01:51N 38°03' W 009°38'15 6.1
2017-Sep-14 23:20N 38°13' W 009°53'3 6.5
2017-Sep-14 22:56N 38°15' W 009°55'4 6.9
2017-Sep-14 22:19N 38°19' W 009°57'2 7.3
2017-Sep-14 22:00N 38°21' W 009°58'5 7.4
2017-Sep-14 21:19N 38°26' W 009°60'3 7.4
2017-Sep-14 20:58N 38°28' W 010°01'4 7.5
2017-Sep-14 20:29N 38°32' W 010°02'5 7.5
2017-Sep-14 19:45N 38°37' W 010°04'2 7.5
2017-Sep-14 19:26N 38°40' W 010°04'3 7.4
2017-Sep-14 19:00N 38°43' W 010°05'4 7.5
2017-Sep-14 18:30N 38°46' W 010°05'4 7.2
2017-Sep-14 18:00N 38°50' W 010°05'4 7.2
2017-Sep-14 17:30N 38°54' W 010°04'4 7.1
2017-Sep-14 17:00N 38°57' W 010°02'4 7.3
2017-Sep-14 16:30N 39°00' W 010°00'4 7.6
2017-Sep-14 16:00N 39°03' W 009°58'4 7.3
2017-Sep-14 15:30N 39°07' W 009°56'4 7.3
2017-Sep-14 15:01N 39°10' W 009°54'4 7.3
2017-Sep-14 14:30N 39°13' W 009°52'4 7.5
2017-Sep-14 13:58N 39°17' W 009°49'4 7.6
2017-Sep-14 13:29N 39°20' W 009°47'4 7.0
2017-Sep-14 12:58N 39°24' W 009°46'  
Track history (hours):
 
Tides and Currents Weather Stations Pressure Air Temp Water Temp Dewpoint Dewpoint Depression Visibility Wind Speed Wind Dir Waves Ship Positions

Whiskey Trio

Last reported at 2017-Sep-17 09:26 UTC. Time now 2017-Sep-20 23:37 UTC.
Position N 35°55' W 005°16'.

Length 89 m; draft 3.3 m.

Type: Cargo ship. MMSI: 353502000.

Date/timePositionNaut miles runAvg speedWind from/ knotsBaromVisibWave heightAir tempDewpointWater temp
2017-Sep-17 09:26N 35°55' W 005°16'3 6.6
2017-Sep-17 09:01N 35°54' W 005°19'0 0.7
2017-Sep-17 08:30N 35°54' W 005°19'0 0.0
2017-Sep-17 08:01N 35°54' W 005°19'0 0.0
2017-Sep-17 07:31N 35°54' W 005°19'0 0.0
2017-Sep-17 07:01N 35°54' W 005°19'0 0.0
2017-Sep-17 06:31N 35°54' W 005°19'0 0.0
2017-Sep-17 06:01N 35°54' W 005°19'0 0.0
2017-Sep-17 05:31N 35°54' W 005°19'1 1.3
2017-Sep-17 05:01N 35°54' W 005°19'1 2.7
2017-Sep-17 04:31N 35°55' W 005°20'2 4.6
2017-Sep-17 04:01N 35°57' W 005°22'2 4.7
2017-Sep-17 03:30N 35°57' W 005°25'3 6.2
2017-Sep-17 03:00N 35°57' W 005°29'201 4.8
2017-Sep-15 09:29N 37°32' W 009°09'11 6.2
2017-Sep-15 07:42N 37°42' W 009°03'1 6.3
2017-Sep-15 07:30N 37°43' W 009°03'3 5.5
2017-Sep-15 07:00N 37°46' W 009°04'3 6.4
2017-Sep-15 06:31N 37°48' W 009°08'3 6.6
2017-Sep-15 06:01N 37°49' W 009°11'3 6.2
2017-Sep-15 05:31N 37°51' W 009°14'3 6.1
2017-Sep-15 05:01N 37°53' W 009°18'3 6.4
2017-Sep-15 04:31N 37°54' W 009°21'3 6.3
2017-Sep-15 04:01N 37°56' W 009°24'3 6.2
2017-Sep-15 03:31N 37°58' W 009°28'3 5.8
2017-Sep-15 03:01N 37°59' W 009°31'4 6.1
2017-Sep-15 02:25N 38°01' W 009°35'3 5.9
2017-Sep-15 01:51N 38°03' W 009°38'15 6.1
2017-Sep-14 23:20N 38°13' W 009°53'3 6.5
2017-Sep-14 22:56N 38°15' W 009°55'4 6.9
2017-Sep-14 22:19N 38°19' W 009°57'2 7.3
2017-Sep-14 22:00N 38°21' W 009°58'5 7.4
2017-Sep-14 21:19N 38°26' W 009°60'3 7.4
2017-Sep-14 20:58N 38°28' W 010°01'4 7.5
2017-Sep-14 20:29N 38°32' W 010°02'5 7.5
2017-Sep-14 19:45N 38°37' W 010°04'2 7.5
2017-Sep-14 19:26N 38°40' W 010°04'3 7.4
2017-Sep-14 19:00N 38°43' W 010°05'4 7.5
2017-Sep-14 18:30N 38°46' W 010°05'4 7.2
2017-Sep-14 18:00N 38°50' W 010°05'4 7.2
2017-Sep-14 17:30N 38°54' W 010°04'4 7.1
2017-Sep-14 17:00N 38°57' W 010°02'4 7.3
2017-Sep-14 16:30N 39°00' W 010°00'4 7.6
2017-Sep-14 16:00N 39°03' W 009°58'4 7.3
2017-Sep-14 15:30N 39°07' W 009°56'4 7.3
2017-Sep-14 15:01N 39°10' W 009°54'4 7.3
2017-Sep-14 14:30N 39°13' W 009°52'4 7.5
2017-Sep-14 13:58N 39°17' W 009°49'4 7.6
2017-Sep-14 13:29N 39°20' W 009°47'4 7.0
2017-Sep-14 12:58N 39°24' W 009°46'  

Dump ship's entire track history